• Join FlightAware (Why Join?)
  • Login
  • US Flag 
12:57PM EDT


 

Airport Tracker/Info


-or-


 

Live Flight TrackerFlight Track Log ✈ CSJ405 ✈ 07-May-2013 ✈ KCDW - KROC

Flight Track Log - Related Links

Times and Time Zones

All times are in EDT time to prevent confusion due to time zone crossing. See the CSJ405 flight status page for this flight to view local times or setup timezone preferences in your user account.

Time Position Orientation Groundspeed Altitude Reporting Facility
EDT Latitude Longitude Course Direction KTS MPH feet Rate Location/Type
08:07PM 40.8333 -74.2833 217° Southwest 108 124 2,200  Level New York TRACON
08:08PM 40.8000 -74.3167 217° Southwest 136 157 3,000 780 Climbing New York TRACON
08:09PM 40.8333 -74.3500 323° Northwest 148 170 3,800 900 Climbing New York TRACON
08:10PM 40.8667 -74.3333 21° North 137 158 4,900 1,140 Climbing New York TRACON
08:11PM 40.8833 -74.3167 37° Northeast 121 139 6,000 1,080 Climbing New York TRACON
08:12PM 40.9333 -74.3167 360° North 137 158 7,100 840 Climbing New York TRACON
08:13PM 40.9667 -74.3500 323° Northwest 147 169 7,800 780 Climbing New York TRACON
08:14PM 41.0000 -74.3667 339° North 152 175 8,700 600 Climbing New York TRACON
08:15PM 41.0333 -74.4000 323° Northwest 158 182 9,100 180 Climbing New York TRACON
08:16PM 41.0833 -74.4167 346° North 175 201 9,100  Level New York TRACON
08:17PM 41.1333 -74.4333 346° North 178 205 9,100 -60 Level New York TRACON
08:19PM 41.1992 -74.4163 339° North  Level FlightAware Approximate
08:26PM 41.4261 -74.7484 321° Northwest  Level FlightAware Approximate
08:27PM 41.4629 -74.7880 321° Northwest  Level FlightAware Approximate
08:28PM 41.4997 -74.8277 321° Northwest  Level FlightAware Approximate
08:29PM 41.5365 -74.8674 321° Northwest  Level FlightAware Approximate
08:30PM 41.5720 -74.9090 308° West  Level FlightAware Approximate
08:31PM 41.6013 -74.9587 308° West  Level FlightAware Approximate
08:32PM 41.6306 -75.0084 308° West  Level FlightAware Approximate
08:33PM 41.6599 -75.0581 308° West  Level FlightAware Approximate
08:34PM 41.6891 -75.1079 308° West  Level FlightAware Approximate
08:35PM 41.7184 -75.1578 308° West  Level FlightAware Approximate
08:36PM 41.7468 -75.2080 306° West  Level FlightAware Approximate
08:37PM 41.7746 -75.2589 306° West  Level FlightAware Approximate
08:38PM 41.8024 -75.3098 306° West  Level FlightAware Approximate
08:39PM 41.8301 -75.3608 306° West  Level FlightAware Approximate
08:40PM 41.8590 -75.4106 308° West  Level FlightAware Approximate
08:41PM 41.8881 -75.4603 308° West  Level FlightAware Approximate
08:42PM 41.9171 -75.5101 308° West  Level FlightAware Approximate
08:43PM 41.9460 -75.5599 308° West  Level FlightAware Approximate
08:44PM 41.9751 -75.6096 308° West  Level FlightAware Approximate
08:45PM 42.0042 -75.6594 308° West  Level FlightAware Approximate
08:46PM 42.0332 -75.7092 308° West  Level FlightAware Approximate
08:47PM 42.0622 -75.7590 308° West  Level FlightAware Approximate
08:48PM 42.0912 -75.8090 308° West  Level FlightAware Approximate
08:49PM 42.1202 -75.8589 308° West  Level FlightAware Approximate
08:50PM 42.1491 -75.9089 308° West  Level FlightAware Approximate
08:51PM 42.1780 -75.9590 308° West  Level FlightAware Approximate
08:52PM 42.2069 -76.0091 308° West  Level FlightAware Approximate
08:53PM 42.2358 -76.0592 308° West  Level FlightAware Approximate
08:54PM 42.2646 -76.1094 308° West  Level FlightAware Approximate
08:55PM 42.2935 -76.1596 308° West  Level FlightAware Approximate
08:56PM 42.3223 -76.2099 308° West  Level FlightAware Approximate
08:57PM 42.3511 -76.2602 308° West  Level FlightAware Approximate
08:58PM 42.3799 -76.3106 308° West  Level FlightAware Approximate
08:59PM 42.4077 -76.3619 306° West  Level FlightAware Approximate
09:00PM 42.4355 -76.4134 306° West  Level FlightAware Approximate
09:01PM 42.4632 -76.4649 306° West  Level FlightAware Approximate
09:02PM 42.4908 -76.5165 306° West  Level FlightAware Approximate
09:02PM 42.5864 -76.6939 306° West 179 206 8,000  Level Cleveland Center
09:03PM 42.5185 -76.5681 306° West  Level FlightAware Approximate
09:03PM 42.5997 -76.7186 306° West 179 206 8,000  Level Cleveland Center
09:04PM 42.5461 -76.6197 306° West  Level FlightAware Approximate
09:04PM 42.6286 -76.7731 306° West 176 203 8,000  Level Cleveland Center
09:05PM 42.5737 -76.6714 306° West  Level FlightAware Approximate
09:05PM 42.6597 -76.8250 309° West 178 205 8,000  Level Cleveland Center
09:06PM 42.6013 -76.7232 306° West  Level FlightAware Approximate
09:06PM 42.6906 -76.8797 307° West 181 208 8,000  Level Cleveland Center
09:07PM 42.6289 -76.7750 306° West  Level FlightAware Approximate
09:07PM 42.7217 -76.9400 305° West 182 209 8,000  Level Cleveland Center
09:08PM 42.7547 -76.9975 308° West 189 217 7,600 -420 Descending Cleveland Center
09:09PM 42.7794 -77.0528 301° West 196 226 7,200 -480 Descending Cleveland Center
09:10PM 42.8125 -77.1103 308° West 196 226 6,700 -420 Descending Cleveland Center
09:10PM 42.8433 -77.1653 307° West 194 223 6,400 -420 Descending Cleveland Center
09:12PM 42.8786 -77.2314 306° West 195 224 5,900 -480 Descending Cleveland Center
09:13PM 42.9114 -77.2892 308° West 196 226 5,400 -480 Descending Cleveland Center
09:14PM 42.9464 -77.3469 310° West 195 224 5,000 -480 Descending Cleveland Center
09:15PM 42.9817 -77.4131 306° West 193 222 4,500 -600 Descending Cleveland Center
09:16PM 43.0169 -77.4853 304° West 192 221 3,700 -780 Descending Cleveland Center
09:17PM 43.0478 -77.5489 304° West 195 224 2,800 -900 Descending Cleveland Center